Monday, December 18, 2017, 3:34 PM EST
Back to Local

KPYM, Plymouth Municipal Airport

Location: Carver, MA, United States Lat: 41.9
Local Time: 3:34 PM EST (20:34 GMT) Lon: -70.733
Time Zone: US/Eastern Elev: 147 ft

Show me the last for .
Show Decoded

2017-12-18 15:18 METAR KPYM 182018Z AUTO VRB03KT 10SM BKN022 OVC037 04/M03 A2998 RMK AO2
                 T00391033 =
2017-12-18 14:52 METAR KPYM 181952Z AUTO 15003KT 10SM FEW024 OVC040 03/M03 A2999 RMK AO2 RAE16
                 SLP157 P0001 T00331033 =
2017-12-18 14:38 METAR KPYM 181938Z AUTO 16003KT 10SM FEW024 BKN038 OVC045 03/M03 A2999 RMK AO2
                 RAE16 P0000 T00331033 =
2017-12-18 13:52 METAR KPYM 181852Z AUTO 16003KT 10SM -RA BKN024 OVC032 03/M04 A3002 RMK AO2
                 RAB52 SLP166 P0000 T00331044 =
2017-12-18 12:52 METAR KPYM 181752Z AUTO 19003KT 10SM BKN033 OVC041 03/M05 A3003 RMK AO2 SLP172
                 T00281050 10028 21033 56038 =
2017-12-18 11:52 METAR KPYM 181652Z AUTO 13003KT 10SM OVC070 02/M06 A3006 RMK AO2 SLP182
                 T00221061 =
2017-12-18 10:52 METAR KPYM 181552Z AUTO 15006KT 10SM FEW028 FEW050 OVC085 01/M07 A3010 RMK AO2
                 SLP194 T00111067 =
2017-12-18 10:43 METAR KPYM 181543Z AUTO 13004KT 10SM SCT028 SCT050 OVC085 01/M06 A3011 RMK AO2
                 T00111061 =
2017-12-18 10:06 METAR KPYM 181506Z AUTO 12003KT 10SM BKN025 BKN039 OVC050 00/M07 A3014 RMK AO2
                 T00001072 =
2017-12-18 09:52 METAR KPYM 181452Z AUTO 12003KT 10SM SCT025 BKN041 OVC050 00/M08 A3015 RMK AO2
                 SLP211 T00001078 58013 =
2017-12-18 09:44 METAR KPYM 181444Z AUTO 13003KT 10SM SCT025 BKN042 OVC100 M01/M08 A3015 RMK AO2
                 T10061083 =
2017-12-18 08:52 METAR KPYM 181352Z AUTO 00000KT 10SM OVC023 M02/M09 A3017 RMK AO2 SLP219
                 T10171089 =
2017-12-18 07:52 METAR KPYM 181252Z AUTO 00000KT 10SM OVC023 M03/M09 A3018 RMK AO2 SLP223
                 T10281089 =
2017-12-18 06:52 METAR KPYM 181152Z AUTO 00000KT 10SM OVC026 M03/M09 A3019 RMK AO2 SLP224
                 T10331089 11033 21067 55009 =
2017-12-18 05:52 METAR KPYM 181052Z AUTO 00000KT 10SM BKN029 OVC120 M04/M09 A3019 RMK AO2 SLP223
                 T10391089 =
2017-12-18 04:52 METAR KPYM 180952Z AUTO 00000KT 10SM OVC065 M03/M10 A3019 RMK AO2 SLP224
                 T10331100 =
2017-12-18 03:52 METAR KPYM 180852Z AUTO 00000KT 10SM FEW065 BKN095 OVC120 M04/M09 A3022 RMK AO2
                 SLP234 T10391094 58004 =
2017-12-18 02:52 METAR KPYM 180752Z AUTO 00000KT 10SM OVC080 M05/M10 A3024 RMK AO2 SLP240
                 T10501100 =
2017-12-18 01:52 METAR KPYM 180652Z AUTO 00000KT 10SM CLR M06/M11 A3023 RMK AO2 SLP240 T10611106
                 =
2017-12-18 00:52 METAR KPYM 180552Z AUTO 00000KT 10SM CLR M07/M11 A3023 RMK AO2 SLP238 T10671111
                 11044 21078 56013 =
2017-12-17 23:52 METAR KPYM 180452Z AUTO 00000KT 10SM CLR M07/M12 A3024 RMK AO2 SLP242 T10721122
                 410061089 =
2017-12-17 22:52 METAR KPYM 180352Z AUTO 00000KT 10SM CLR M07/M12 A3025 RMK AO2 SLP244 T10671117
                 =
2017-12-17 21:52 METAR KPYM 180252Z AUTO 00000KT 10SM CLR M06/M11 A3027 RMK AO2 SLP250 T10561111
                 58002 =
2017-12-17 20:52 METAR KPYM 180152Z AUTO 00000KT 10SM CLR M05/M12 A3028 RMK AO2 SLP257 T10501117
                 =
2017-12-17 19:52 METAR KPYM 180052Z AUTO 00000KT 10SM CLR M06/M12 A3027 RMK AO2 SLP254 T10611122
                 =
2017-12-17 18:52 METAR KPYM 172352Z AUTO 00000KT 10SM CLR M04/M12 A3027 RMK AO2 SLP253 T10441122
                 11006 21050 53011 =
2017-12-17 17:52 METAR KPYM 172252Z AUTO 27003KT 10SM CLR M03/M15 A3025 RMK AO2 SLP246 T10331150
                 =
2017-12-17 16:52 METAR KPYM 172152Z AUTO 32003KT 10SM CLR M03/M16 A3024 RMK AO2 SLP244 T10281156
                 =
2017-12-17 15:52 METAR KPYM 172052Z AUTO 00000KT 10SM CLR M02/M16 A3024 RMK AO2 SLP241 T10171161
                 53004 =

Support USWX by starting your Amazon purchase here.